sensor_id;sensor_type;location;lat;lon;timestamp;pressure;altitude;pressure_sealevel;temperature;humidity
53514;BME280;39768;54.148;12.174;2023-04-07T00:01:56;102013.47;;;6.50;73.84
53514;BME280;39768;54.148;12.174;2023-04-07T00:05:57;102008.13;;;6.47;74.49
53514;BME280;39768;54.148;12.174;2023-04-07T00:09:59;102012.06;;;6.28;74.50
53514;BME280;39768;54.148;12.174;2023-04-07T00:14:00;102015.69;;;5.97;77.11
53514;BME280;39768;54.148;12.174;2023-04-07T00:18:02;102016.94;;;5.78;78.74
53514;BME280;39768;54.148;12.174;2023-04-07T00:22:03;102014.84;;;5.66;78.68
53514;BME280;39768;54.148;12.174;2023-04-07T00:26:05;102026.50;;;5.43;80.71
53514;BME280;39768;54.148;12.174;2023-04-07T00:30:07;102013.81;;;5.28;81.30
53514;BME280;39768;54.148;12.174;2023-04-07T00:34:08;102019.50;;;5.12;83.34
53514;BME280;39768;54.148;12.174;2023-04-07T00:38:09;102013.03;;;5.01;84.86
53514;BME280;39768;54.148;12.174;2023-04-07T00:42:11;102015.13;;;5.13;85.91
53514;BME280;39768;54.148;12.174;2023-04-07T00:46:12;102009.22;;;5.21;84.68
53514;BME280;39768;54.148;12.174;2023-04-07T00:50:14;102004.78;;;5.52;83.26
53514;BME280;39768;54.148;12.174;2023-04-07T00:54:16;102003.75;;;5.78;78.58
53514;BME280;39768;54.148;12.174;2023-04-07T00:58:18;102006.53;;;5.18;80.76
53514;BME280;39768;54.148;12.174;2023-04-07T01:02:31;102002.00;;;5.46;79.36
53514;BME280;39768;54.148;12.174;2023-04-07T01:06:38;102004.38;;;5.37;79.50
53514;BME280;39768;54.148;12.174;2023-04-07T01:10:47;101995.19;;;5.54;79.21
53514;BME280;39768;54.148;12.174;2023-04-07T01:14:59;101993.44;;;5.54;78.83
53514;BME280;39768;54.148;12.174;2023-04-07T01:19:36;101998.06;;;5.61;78.99
53514;BME280;39768;54.148;12.174;2023-04-07T01:24:16;101993.53;;;5.57;79.32
53514;BME280;39768;54.148;12.174;2023-04-07T01:32:54;101985.41;;;5.48;78.83
53514;BME280;39768;54.148;12.174;2023-04-07T01:36:57;101995.94;;;5.48;80.15
53514;BME280;39768;54.148;12.174;2023-04-07T01:41:00;101993.75;;;5.32;79.78
53514;BME280;39768;54.148;12.174;2023-04-07T01:45:03;101993.03;;;5.08;82.10
53514;BME280;39768;54.148;12.174;2023-04-07T01:49:06;101995.94;;;4.87;83.89
53514;BME280;39768;54.148;12.174;2023-04-07T01:53:08;101995.41;;;4.99;81.74
53514;BME280;39768;54.148;12.174;2023-04-07T01:57:11;102001.66;;;5.02;84.20
53514;BME280;39768;54.148;12.174;2023-04-07T02:01:14;101994.38;;;4.93;85.78
53514;BME280;39768;54.148;12.174;2023-04-07T02:05:19;101997.13;;;4.68;87.03
53514;BME280;39768;54.148;12.174;2023-04-07T02:09:22;102000.31;;;5.16;85.96
53514;BME280;39768;54.148;12.174;2023-04-07T02:13:27;102001.13;;;5.14;87.31
53514;BME280;39768;54.148;12.174;2023-04-07T02:17:31;101995.75;;;5.11;88.47
53514;BME280;39768;54.148;12.174;2023-04-07T02:21:35;101994.06;;;4.83;89.23
53514;BME280;39768;54.148;12.174;2023-04-07T02:25:37;102003.66;;;4.52;93.04
53514;BME280;39768;54.148;12.174;2023-04-07T02:29:38;101988.19;;;4.35;97.63
53514;BME280;39768;54.148;12.174;2023-04-07T02:33:40;101999.13;;;4.20;100.00
53514;BME280;39768;54.148;12.174;2023-04-07T02:37:42;101998.59;;;4.32;100.00
53514;BME280;39768;54.148;12.174;2023-04-07T02:41:44;102002.81;;;4.82;99.61
53514;BME280;39768;54.148;12.174;2023-04-07T02:45:45;101995.66;;;5.08;95.85
53514;BME280;39768;54.148;12.174;2023-04-07T02:49:47;101987.72;;;5.38;88.48
53514;BME280;39768;54.148;12.174;2023-04-07T02:53:48;101993.38;;;5.20;87.57
53514;BME280;39768;54.148;12.174;2023-04-07T02:57:50;101993.47;;;4.93;87.31
53514;BME280;39768;54.148;12.174;2023-04-07T03:02:06;101997.06;;;4.95;89.82
53514;BME280;39768;54.148;12.174;2023-04-07T03:06:09;101986.44;;;4.92;90.37
53514;BME280;39768;54.148;12.174;2023-04-07T03:10:19;101986.63;;;4.98;87.49
53514;BME280;39768;54.148;12.174;2023-04-07T03:14:21;101992.88;;;4.43;95.34
53514;BME280;39768;54.148;12.174;2023-04-07T03:18:23;101994.66;;;4.73;97.83
53514;BME280;39768;54.148;12.174;2023-04-07T03:22:31;102000.91;;;4.78;96.40
53514;BME280;39768;54.148;12.174;2023-04-07T03:26:33;101999.44;;;4.57;96.58
53514;BME280;39768;54.148;12.174;2023-04-07T03:30:36;101993.97;;;4.80;94.22
53514;BME280;39768;54.148;12.174;2023-04-07T03:34:38;101997.63;;;4.85;92.71
53514;BME280;39768;54.148;12.174;2023-04-07T03:38:40;102005.22;;;5.04;89.55
53514;BME280;39768;54.148;12.174;2023-04-07T03:42:42;102002.81;;;4.82;89.24
53514;BME280;39768;54.148;12.174;2023-04-07T03:46:45;102005.22;;;4.74;87.71
53514;BME280;39768;54.148;12.174;2023-04-07T03:50:49;102011.31;;;4.73;88.97
53514;BME280;39768;54.148;12.174;2023-04-07T03:54:53;102014.44;;;4.61;89.48
53514;BME280;39768;54.148;12.174;2023-04-07T03:58:58;102011.97;;;4.66;88.23
53514;BME280;39768;54.148;12.174;2023-04-07T04:03:05;102013.97;;;4.46;87.79
53514;BME280;39768;54.148;12.174;2023-04-07T04:07:09;102017.00;;;4.30;90.29
53514;BME280;39768;54.148;12.174;2023-04-07T04:11:23;102018.72;;;4.30;90.91
53514;BME280;39768;54.148;12.174;2023-04-07T04:15:31;102013.88;;;4.15;93.19
53514;BME280;39768;54.148;12.174;2023-04-07T04:19:35;102018.47;;;4.22;91.82
53514;BME280;39768;54.148;12.174;2023-04-07T04:23:45;102022.97;;;4.26;91.60
53514;BME280;39768;54.148;12.174;2023-04-07T04:27:46;102025.72;;;4.29;93.34
53514;BME280;39768;54.148;12.174;2023-04-07T04:31:52;102032.44;;;4.48;91.62
53514;BME280;39768;54.148;12.174;2023-04-07T04:35:55;102038.63;;;4.78;90.70
53514;BME280;39768;54.148;12.174;2023-04-07T04:39:58;102037.00;;;4.82;90.21
53514;BME280;39768;54.148;12.174;2023-04-07T04:43:59;102032.50;;;4.78;89.48
53514;BME280;39768;54.148;12.174;2023-04-07T04:48:01;102032.09;;;4.94;88.75
53514;BME280;39768;54.148;12.174;2023-04-07T04:52:03;102032.69;;;4.84;88.25
53514;BME280;39768;54.148;12.174;2023-04-07T04:56:10;102024.50;;;5.33;91.58
53514;BME280;39768;54.148;12.174;2023-04-07T05:00:15;102020.91;;;5.95;87.51
53514;BME280;39768;54.148;12.174;2023-04-07T05:04:19;102028.97;;;6.36;84.63
53514;BME280;39768;54.148;12.174;2023-04-07T05:08:29;102021.53;;;6.95;79.24
53514;BME280;39768;54.148;12.174;2023-04-07T05:12:33;102025.22;;;6.64;76.93
53514;BME280;39768;54.148;12.174;2023-04-07T05:16:35;102030.09;;;6.47;79.98
53514;BME280;39768;54.148;12.174;2023-04-07T05:20:39;102044.28;;;5.20;90.92
53514;BME280;39768;54.148;12.174;2023-04-07T05:24:42;102042.78;;;4.99;96.42
53514;BME280;39768;54.148;12.174;2023-04-07T05:28:44;102045.34;;;6.23;92.22
53514;BME280;39768;54.148;12.174;2023-04-07T05:32:52;102037.97;;;6.46;85.82
53514;BME280;39768;54.148;12.174;2023-04-07T05:37:11;102033.91;;;6.99;83.82
53514;BME280;39768;54.148;12.174;2023-04-07T05:41:13;102038.41;;;7.03;83.26
53514;BME280;39768;54.148;12.174;2023-04-07T05:45:14;102045.00;;;6.45;84.70
53514;BME280;39768;54.148;12.174;2023-04-07T05:49:20;102052.47;;;6.27;87.15
53514;BME280;39768;54.148;12.174;2023-04-07T05:53:29;102049.94;;;6.31;87.16
53514;BME280;39768;54.148;12.174;2023-04-07T05:57:31;102057.72;;;6.27;89.36
53514;BME280;39768;54.148;12.174;2023-04-07T06:01:35;102062.84;;;5.88;93.68
53514;BME280;39768;54.148;12.174;2023-04-07T06:05:37;102065.97;;;5.42;97.23
53514;BME280;39768;54.148;12.174;2023-04-07T06:09:44;102062.72;;;5.83;96.97
53514;BME280;39768;54.148;12.174;2023-04-07T06:13:46;102071.28;;;5.75;98.49
53514;BME280;39768;54.148;12.174;2023-04-07T06:17:48;102066.44;;;6.23;100.00
53514;BME280;39768;54.148;12.174;2023-04-07T06:21:49;102073.13;;;6.10;100.00
53514;BME280;39768;54.148;12.174;2023-04-07T06:25:51;102072.88;;;6.71;100.00
53514;BME280;39768;54.148;12.174;2023-04-07T06:29:53;102075.09;;;5.86;100.00
53514;BME280;39768;54.148;12.174;2023-04-07T06:33:54;102072.78;;;6.31;100.00
53514;BME280;39768;54.148;12.174;2023-04-07T06:37:56;102077.22;;;6.32;100.00
53514;BME280;39768;54.148;12.174;2023-04-07T06:41:57;102082.31;;;6.26;100.00
53514;BME280;39768;54.148;12.174;2023-04-07T06:45:59;102079.69;;;6.26;100.00
53514;BME280;39768;54.148;12.174;2023-04-07T06:50:01;102078.16;;;6.34;100.00
53514;BME280;39768;54.148;12.174;2023-04-07T06:54:02;102081.28;;;6.19;100.00
53514;BME280;39768;54.148;12.174;2023-04-07T06:58:05;102079.50;;;6.54;100.00
53514;BME280;39768;54.148;12.174;2023-04-07T07:02:07;102090.59;;;6.76;100.00
53514;BME280;39768;54.148;12.174;2023-04-07T07:06:08;102085.47;;;6.83;100.00
53514;BME280;39768;54.148;12.174;2023-04-07T07:10:10;102091.88;;;6.57;100.00
53514;BME280;39768;54.148;12.174;2023-04-07T07:14:11;102095.56;;;6.63;100.00
53514;BME280;39768;54.148;12.174;2023-04-07T07:18:13;102090.97;;;6.92;100.00
53514;BME280;39768;54.148;12.174;2023-04-07T07:22:15;102098.63;;;6.44;100.00
53514;BME280;39768;54.148;12.174;2023-04-07T07:26:16;102102.94;;;7.58;100.00
53514;BME280;39768;54.148;12.174;2023-04-07T07:30:20;102098.25;;;7.88;99.62
53514;BME280;39768;54.148;12.174;2023-04-07T07:34:21;102106.16;;;7.41;99.78
53514;BME280;39768;54.148;12.174;2023-04-07T07:38:23;102101.59;;;9.39;90.48
53514;BME280;39768;54.148;12.174;2023-04-07T07:42:24;102097.94;;;7.73;92.37
53514;BME280;39768;54.148;12.174;2023-04-07T07:46:26;102105.75;;;8.60;94.16
53514;BME280;39768;54.148;12.174;2023-04-07T07:50:27;102115.78;;;8.31;90.60
53514;BME280;39768;54.148;12.174;2023-04-07T07:54:29;102123.34;;;8.57;88.70
53514;BME280;39768;54.148;12.174;2023-04-07T07:58:30;102123.63;;;8.76;88.89
53514;BME280;39768;54.148;12.174;2023-04-07T08:02:32;102120.56;;;8.51;89.75
53514;BME280;39768;54.148;12.174;2023-04-07T08:06:34;102121.31;;;8.96;85.28
53514;BME280;39768;54.148;12.174;2023-04-07T08:10:36;102123.09;;;8.97;83.09
53514;BME280;39768;54.148;12.174;2023-04-07T08:14:38;102119.75;;;8.55;80.94
53514;BME280;39768;54.148;12.174;2023-04-07T08:18:39;102122.75;;;8.76;80.88
53514;BME280;39768;54.148;12.174;2023-04-07T08:22:41;102119.88;;;9.18;79.71
53514;BME280;39768;54.148;12.174;2023-04-07T08:26:43;102130.59;;;8.70;79.39
53514;BME280;39768;54.148;12.174;2023-04-07T08:30:45;102122.34;;;8.52;78.88
53514;BME280;39768;54.148;12.174;2023-04-07T08:34:47;102123.88;;;8.37;80.13
53514;BME280;39768;54.148;12.174;2023-04-07T08:38:48;102131.94;;;8.99;80.27
53514;BME280;39768;54.148;12.174;2023-04-07T08:42:50;102123.84;;;8.36;80.38
53514;BME280;39768;54.148;12.174;2023-04-07T08:46:54;102125.41;;;8.77;77.54
53514;BME280;39768;54.148;12.174;2023-04-07T08:50:59;102118.00;;;8.55;79.26
53514;BME280;39768;54.148;12.174;2023-04-07T08:55:03;102123.19;;;9.71;74.67
53514;BME280;39768;54.148;12.174;2023-04-07T08:59:08;102127.50;;;8.98;79.34
53514;BME280;39768;54.148;12.174;2023-04-07T09:03:10;102122.53;;;9.21;76.06
53514;BME280;39768;54.148;12.174;2023-04-07T09:07:12;102121.09;;;10.18;75.74
53514;BME280;39768;54.148;12.174;2023-04-07T09:11:13;102130.88;;;10.24;72.30
53514;BME280;39768;54.148;12.174;2023-04-07T09:15:15;102125.31;;;10.03;72.58
53514;BME280;39768;54.148;12.174;2023-04-07T09:19:17;102130.59;;;10.01;67.63
53514;BME280;39768;54.148;12.174;2023-04-07T09:23:32;102132.66;;;10.27;65.57
53514;BME280;39768;54.148;12.174;2023-04-07T09:27:34;102130.06;;;9.55;71.06
53514;BME280;39768;54.148;12.174;2023-04-07T09:31:49;102121.47;;;9.75;67.97
53514;BME280;39768;54.148;12.174;2023-04-07T09:35:52;102121.88;;;9.37;68.61
53514;BME280;39768;54.148;12.174;2023-04-07T09:39:54;102115.34;;;9.80;71.63
53514;BME280;39768;54.148;12.174;2023-04-07T09:43:56;102110.06;;;10.74;66.78
53514;BME280;39768;54.148;12.174;2023-04-07T09:47:58;102113.25;;;10.31;70.25
53514;BME280;39768;54.148;12.174;2023-04-07T09:52:02;102113.28;;;10.34;65.92
53514;BME280;39768;54.148;12.174;2023-04-07T09:56:11;102118.53;;;9.52;72.46
53514;BME280;39768;54.148;12.174;2023-04-07T10:00:13;102122.22;;;9.65;73.83
53514;BME280;39768;54.148;12.174;2023-04-07T10:04:15;102120.22;;;9.45;74.01
53514;BME280;39768;54.148;12.174;2023-04-07T10:08:18;102121.03;;;9.40;69.81
53514;BME280;39768;54.148;12.174;2023-04-07T10:12:20;102120.19;;;9.42;68.51
53514;BME280;39768;54.148;12.174;2023-04-07T10:16:22;102124.28;;;9.17;74.71
53514;BME280;39768;54.148;12.174;2023-04-07T10:20:24;102128.28;;;8.37;78.58
53514;BME280;39768;54.148;12.174;2023-04-07T10:25:05;102123.97;;;8.98;77.55
53514;BME280;39768;54.148;12.174;2023-04-07T10:29:09;102123.31;;;8.55;79.16
53514;BME280;39768;54.148;12.174;2023-04-07T10:33:11;102126.19;;;8.70;79.24
53514;BME280;39768;54.148;12.174;2023-04-07T10:37:13;102132.84;;;8.47;86.04
53514;BME280;39768;54.148;12.174;2023-04-07T10:50:21;102133.84;;;9.09;87.87
53514;BME280;39768;54.148;12.174;2023-04-07T10:54:23;102127.88;;;9.24;85.63
53514;BME280;39768;54.148;12.174;2023-04-07T10:58:32;102122.28;;;9.69;78.35
53514;BME280;39768;54.148;12.174;2023-04-07T11:02:34;102128.72;;;8.63;86.22
53514;BME280;39768;54.148;12.174;2023-04-07T11:06:45;102128.53;;;9.08;84.02
53514;BME280;39768;54.148;12.174;2023-04-07T11:10:47;102141.69;;;8.47;86.87
53514;BME280;39768;54.148;12.174;2023-04-07T11:14:48;102142.16;;;8.76;85.02
53514;BME280;39768;54.148;12.174;2023-04-07T11:18:49;102142.09;;;8.70;87.64
53514;BME280;39768;54.148;12.174;2023-04-07T11:23:00;102134.66;;;9.05;85.66
53514;BME280;39768;54.148;12.174;2023-04-07T11:27:01;102134.31;;;10.17;79.68
53514;BME280;39768;54.148;12.174;2023-04-07T11:31:02;102126.66;;;10.46;77.91
53514;BME280;39768;54.148;12.174;2023-04-07T11:35:08;102136.34;;;10.38;79.82
53514;BME280;39768;54.148;12.174;2023-04-07T11:39:19;102128.50;;;9.71;81.80
53514;BME280;39768;54.148;12.174;2023-04-07T11:43:24;102129.34;;;9.69;83.42
53514;BME280;39768;54.148;12.174;2023-04-07T11:47:36;102136.44;;;9.06;90.37
53514;BME280;39768;54.148;12.174;2023-04-07T11:51:40;102135.69;;;8.58;95.86
53514;BME280;39768;54.148;12.174;2023-04-07T11:55:41;102145.34;;;8.07;100.00
53514;BME280;39768;54.148;12.174;2023-04-07T11:59:43;102146.06;;;8.44;100.00
53514;BME280;39768;54.148;12.174;2023-04-07T12:04:03;102152.28;;;9.02;100.00
53514;BME280;39768;54.148;12.174;2023-04-07T12:08:05;102148.00;;;8.54;100.00
53514;BME280;39768;54.148;12.174;2023-04-07T12:12:06;102150.44;;;8.96;100.00
53514;BME280;39768;54.148;12.174;2023-04-07T12:16:08;102151.53;;;8.55;100.00
53514;BME280;39768;54.148;12.174;2023-04-07T12:20:10;102150.84;;;9.25;100.00
53514;BME280;39768;54.148;12.174;2023-04-07T12:24:11;102143.53;;;9.07;100.00
53514;BME280;39768;54.148;12.174;2023-04-07T12:28:13;102142.88;;;9.22;100.00
53514;BME280;39768;54.148;12.174;2023-04-07T12:32:14;102141.09;;;9.19;100.00
53514;BME280;39768;54.148;12.174;2023-04-07T12:36:16;102134.09;;;9.26;100.00
53514;BME280;39768;54.148;12.174;2023-04-07T12:40:17;102139.66;;;9.44;100.00
53514;BME280;39768;54.148;12.174;2023-04-07T12:44:19;102128.22;;;9.50;100.00
53514;BME280;39768;54.148;12.174;2023-04-07T12:48:20;102125.66;;;10.33;96.76
53514;BME280;39768;54.148;12.174;2023-04-07T12:52:21;102128.56;;;9.76;99.88
53514;BME280;39768;54.148;12.174;2023-04-07T12:56:23;102139.00;;;8.99;100.00
53514;BME280;39768;54.148;12.174;2023-04-07T13:00:24;102128.69;;;9.88;98.59
53514;BME280;39768;54.148;12.174;2023-04-07T13:04:26;102137.28;;;9.01;100.00
53514;BME280;39768;54.148;12.174;2023-04-07T13:08:30;102141.03;;;9.16;100.00
53514;BME280;39768;54.148;12.174;2023-04-07T13:12:32;102127.25;;;9.42;100.00
53514;BME280;39768;54.148;12.174;2023-04-07T13:16:33;102123.84;;;9.53;97.96
53514;BME280;39768;54.148;12.174;2023-04-07T13:20:35;102119.75;;;9.81;98.66
53514;BME280;39768;54.148;12.174;2023-04-07T13:24:36;102123.00;;;9.56;100.00
53514;BME280;39768;54.148;12.174;2023-04-07T13:28:38;102127.13;;;9.31;100.00
53514;BME280;39768;54.148;12.174;2023-04-07T13:32:39;102124.31;;;9.22;100.00
53514;BME280;39768;54.148;12.174;2023-04-07T13:36:42;102125.94;;;9.77;97.10
53514;BME280;39768;54.148;12.174;2023-04-07T13:40:43;102129.81;;;9.34;100.00
53514;BME280;39768;54.148;12.174;2023-04-07T13:44:45;102139.97;;;9.70;100.00
53514;BME280;39768;54.148;12.174;2023-04-07T13:48:48;102136.44;;;9.71;100.00
53514;BME280;39768;54.148;12.174;2023-04-07T13:52:49;102129.16;;;9.53;100.00
53514;BME280;39768;54.148;12.174;2023-04-07T13:56:51;102127.19;;;10.13;99.16
53514;BME280;39768;54.148;12.174;2023-04-07T14:00:52;102127.75;;;9.15;100.00
53514;BME280;39768;54.148;12.174;2023-04-07T14:04:54;102128.69;;;9.86;97.38
53514;BME280;39768;54.148;12.174;2023-04-07T14:08:56;102128.59;;;9.77;99.84
53514;BME280;39768;54.148;12.174;2023-04-07T14:12:58;102117.19;;;9.87;100.00
53514;BME280;39768;54.148;12.174;2023-04-07T14:16:59;102128.03;;;8.76;100.00
53514;BME280;39768;54.148;12.174;2023-04-07T14:21:00;102115.84;;;9.47;100.00
53514;BME280;39768;54.148;12.174;2023-04-07T14:25:03;102124.16;;;9.78;100.00
53514;BME280;39768;54.148;12.174;2023-04-07T14:29:05;102120.94;;;8.72;100.00
53514;BME280;39768;54.148;12.174;2023-04-07T14:33:07;102125.91;;;9.09;100.00
53514;BME280;39768;54.148;12.174;2023-04-07T14:37:10;102131.41;;;8.18;100.00
53514;BME280;39768;54.148;12.174;2023-04-07T14:41:12;102132.78;;;8.41;100.00
53514;BME280;39768;54.148;12.174;2023-04-07T14:45:14;102128.00;;;8.71;100.00
53514;BME280;39768;54.148;12.174;2023-04-07T14:49:15;102132.47;;;8.75;100.00
53514;BME280;39768;54.148;12.174;2023-04-07T14:53:17;102132.72;;;8.38;100.00
53514;BME280;39768;54.148;12.174;2023-04-07T14:57:18;102134.22;;;8.75;100.00
53514;BME280;39768;54.148;12.174;2023-04-07T15:01:19;102139.25;;;8.61;100.00
53514;BME280;39768;54.148;12.174;2023-04-07T15:05:21;102139.00;;;8.44;100.00
53514;BME280;39768;54.148;12.174;2023-04-07T15:09:23;102133.97;;;9.17;100.00
53514;BME280;39768;54.148;12.174;2023-04-07T15:13:24;102136.13;;;9.45;100.00
53514;BME280;39768;54.148;12.174;2023-04-07T15:17:26;102138.63;;;9.33;100.00
53514;BME280;39768;54.148;12.174;2023-04-07T15:21:43;102131.06;;;8.99;100.00
53514;BME280;39768;54.148;12.174;2023-04-07T15:25:46;102129.94;;;8.84;100.00
53514;BME280;39768;54.148;12.174;2023-04-07T15:29:47;102130.47;;;8.62;100.00
53514;BME280;39768;54.148;12.174;2023-04-07T15:33:49;102131.22;;;9.11;100.00
53514;BME280;39768;54.148;12.174;2023-04-07T15:37:51;102136.19;;;9.51;100.00
53514;BME280;39768;54.148;12.174;2023-04-07T15:41:52;102128.38;;;10.38;100.00
53514;BME280;39768;54.148;12.174;2023-04-07T15:45:54;102126.59;;;10.41;100.00
53514;BME280;39768;54.148;12.174;2023-04-07T15:49:56;102130.03;;;10.30;100.00
53514;BME280;39768;54.148;12.174;2023-04-07T15:53:58;102132.56;;;10.17;100.00
53514;BME280;39768;54.148;12.174;2023-04-07T15:58:00;102138.47;;;9.95;100.00
53514;BME280;39768;54.148;12.174;2023-04-07T16:02:02;102136.88;;;9.34;100.00
53514;BME280;39768;54.148;12.174;2023-04-07T16:06:03;102145.50;;;9.19;100.00
53514;BME280;39768;54.148;12.174;2023-04-07T16:10:05;102143.31;;;9.55;100.00
53514;BME280;39768;54.148;12.174;2023-04-07T16:14:08;102141.59;;;8.96;100.00
53514;BME280;39768;54.148;12.174;2023-04-07T16:18:10;102133.00;;;9.80;100.00
53514;BME280;39768;54.148;12.174;2023-04-07T16:22:12;102145.16;;;9.60;100.00
53514;BME280;39768;54.148;12.174;2023-04-07T16:26:14;102141.69;;;9.64;100.00
53514;BME280;39768;54.148;12.174;2023-04-07T16:30:15;102151.53;;;9.75;100.00
53514;BME280;39768;54.148;12.174;2023-04-07T16:34:18;102150.41;;;9.57;100.00
53514;BME280;39768;54.148;12.174;2023-04-07T16:38:19;102150.38;;;9.53;100.00
53514;BME280;39768;54.148;12.174;2023-04-07T16:42:25;102155.19;;;9.20;100.00
53514;BME280;39768;54.148;12.174;2023-04-07T16:46:29;102155.97;;;9.11;100.00
53514;BME280;39768;54.148;12.174;2023-04-07T16:50:30;102165.66;;;9.11;100.00
53514;BME280;39768;54.148;12.174;2023-04-07T16:54:34;102152.66;;;9.26;100.00
53514;BME280;39768;54.148;12.174;2023-04-07T16:58:36;102151.31;;;9.57;100.00
53514;BME280;39768;54.148;12.174;2023-04-07T17:02:37;102162.53;;;9.39;100.00
53514;BME280;39768;54.148;12.174;2023-04-07T17:06:39;102161.22;;;9.08;100.00
53514;BME280;39768;54.148;12.174;2023-04-07T17:10:40;102165.56;;;9.67;100.00
53514;BME280;39768;54.148;12.174;2023-04-07T17:14:42;102179.78;;;9.10;100.00
53514;BME280;39768;54.148;12.174;2023-04-07T17:18:43;102175.56;;;9.24;100.00
53514;BME280;39768;54.148;12.174;2023-04-07T17:22:44;102178.28;;;9.27;100.00
53514;BME280;39768;54.148;12.174;2023-04-07T17:26:48;102189.22;;;9.51;100.00
53514;BME280;39768;54.148;12.174;2023-04-07T17:30:50;102183.84;;;9.45;100.00
53514;BME280;39768;54.148;12.174;2023-04-07T17:34:51;102191.44;;;9.19;100.00
53514;BME280;39768;54.148;12.174;2023-04-07T17:38:53;102198.69;;;9.33;100.00
53514;BME280;39768;54.148;12.174;2023-04-07T17:42:54;102191.91;;;8.43;100.00
53514;BME280;39768;54.148;12.174;2023-04-07T17:46:59;102202.13;;;8.71;100.00
53514;BME280;39768;54.148;12.174;2023-04-07T17:51:00;102199.38;;;8.67;100.00
53514;BME280;39768;54.148;12.174;2023-04-07T17:55:01;102201.69;;;9.00;100.00
53514;BME280;39768;54.148;12.174;2023-04-07T17:59:03;102207.63;;;8.83;100.00
53514;BME280;39768;54.148;12.174;2023-04-07T18:03:04;102207.44;;;9.27;100.00
53514;BME280;39768;54.148;12.174;2023-04-07T18:07:08;102213.31;;;9.08;100.00
53514;BME280;39768;54.148;12.174;2023-04-07T18:11:09;102213.81;;;8.36;100.00
53514;BME280;39768;54.148;12.174;2023-04-07T18:15:11;102210.69;;;8.57;100.00
53514;BME280;39768;54.148;12.174;2023-04-07T18:19:12;102217.63;;;9.01;100.00
53514;BME280;39768;54.148;12.174;2023-04-07T18:23:14;102231.81;;;9.05;100.00
53514;BME280;39768;54.148;12.174;2023-04-07T18:27:16;102226.16;;;8.83;100.00
53514;BME280;39768;54.148;12.174;2023-04-07T18:31:17;102220.81;;;9.36;100.00
53514;BME280;39768;54.148;12.174;2023-04-07T18:35:20;102231.41;;;8.82;100.00
53514;BME280;39768;54.148;12.174;2023-04-07T18:39:21;102231.69;;;9.54;100.00
53514;BME280;39768;54.148;12.174;2023-04-07T18:43:24;102234.19;;;8.88;100.00
53514;BME280;39768;54.148;12.174;2023-04-07T18:47:25;102237.69;;;8.87;100.00
53514;BME280;39768;54.148;12.174;2023-04-07T18:51:29;102245.06;;;9.06;100.00
53514;BME280;39768;54.148;12.174;2023-04-07T18:55:31;102246.78;;;9.03;100.00
53514;BME280;39768;54.148;12.174;2023-04-07T18:59:32;102248.25;;;8.86;100.00
53514;BME280;39768;54.148;12.174;2023-04-07T19:03:34;102258.31;;;9.06;100.00
53514;BME280;39768;54.148;12.174;2023-04-07T19:07:36;102250.25;;;8.99;100.00
53514;BME280;39768;54.148;12.174;2023-04-07T19:11:37;102249.03;;;8.80;100.00
53514;BME280;39768;54.148;12.174;2023-04-07T19:15:38;102260.91;;;9.02;100.00
53514;BME280;39768;54.148;12.174;2023-04-07T19:19:44;102253.63;;;8.42;100.00
53514;BME280;39768;54.148;12.174;2023-04-07T19:23:46;102262.72;;;9.06;100.00
53514;BME280;39768;54.148;12.174;2023-04-07T19:27:49;102260.06;;;8.56;100.00
53514;BME280;39768;54.148;12.174;2023-04-07T19:31:50;102266.72;;;8.82;100.00
53514;BME280;39768;54.148;12.174;2023-04-07T19:35:54;102266.72;;;8.82;100.00
53514;BME280;39768;54.148;12.174;2023-04-07T19:39:56;102268.38;;;8.74;100.00
53514;BME280;39768;54.148;12.174;2023-04-07T19:44:03;102261.50;;;8.86;100.00
53514;BME280;39768;54.148;12.174;2023-04-07T19:48:05;102265.66;;;8.71;100.00
53514;BME280;39768;54.148;12.174;2023-04-07T19:52:06;102268.50;;;9.36;100.00
53514;BME280;39768;54.148;12.174;2023-04-07T19:56:08;102267.34;;;8.68;100.00
53514;BME280;39768;54.148;12.174;2023-04-07T20:00:11;102273.97;;;8.93;100.00
53514;BME280;39768;54.148;12.174;2023-04-07T20:04:20;102273.16;;;8.97;100.00
53514;BME280;39768;54.148;12.174;2023-04-07T20:08:22;102263.59;;;9.06;100.00
53514;BME280;39768;54.148;12.174;2023-04-07T20:12:24;102277.91;;;9.16;100.00
53514;BME280;39768;54.148;12.174;2023-04-07T20:16:25;102276.50;;;9.38;100.00
53514;BME280;39768;54.148;12.174;2023-04-07T20:20:27;102278.72;;;8.64;100.00
53514;BME280;39768;54.148;12.174;2023-04-07T20:24:29;102285.22;;;8.79;100.00
53514;BME280;39768;54.148;12.174;2023-04-07T20:28:31;102284.38;;;9.33;100.00
53514;BME280;39768;54.148;12.174;2023-04-07T20:32:32;102288.56;;;8.69;100.00
53514;BME280;39768;54.148;12.174;2023-04-07T20:36:33;102283.50;;;8.83;100.00
53514;BME280;39768;54.148;12.174;2023-04-07T20:40:36;102282.16;;;9.05;100.00
53514;BME280;39768;54.148;12.174;2023-04-07T20:44:37;102291.28;;;9.24;100.00
53514;BME280;39768;54.148;12.174;2023-04-07T20:48:39;102289.38;;;9.15;100.00
53514;BME280;39768;54.148;12.174;2023-04-07T20:52:40;102282.66;;;9.37;100.00
53514;BME280;39768;54.148;12.174;2023-04-07T20:56:43;102282.66;;;9.37;100.00
53514;BME280;39768;54.148;12.174;2023-04-07T21:00:45;102292.75;;;8.14;100.00
53514;BME280;39768;54.148;12.174;2023-04-07T21:04:46;102293.63;;;8.15;100.00
53514;BME280;39768;54.148;12.174;2023-04-07T21:08:48;102285.53;;;8.07;100.00
53514;BME280;39768;54.148;12.174;2023-04-07T21:12:50;102279.63;;;8.21;100.00
53514;BME280;39768;54.148;12.174;2023-04-07T21:16:52;102288.97;;;8.44;100.00